createdAt,value
2022-10-05T00:03:51.010Z,99281.00
2022-10-05T00:09:21.639Z,99274.00
2022-10-05T00:14:57.873Z,99274.00
2022-10-05T00:20:26.741Z,99271.20
2022-10-05T00:26:11.149Z,99268.00
2022-10-05T00:31:41.191Z,99255.00
2022-10-05T00:37:26.060Z,99251.80
2022-10-05T00:43:18.008Z,99240.80
2022-10-05T00:49:01.962Z,99226.40
2022-10-05T00:54:53.920Z,99211.20
2022-10-05T01:00:24.880Z,99204.60
2022-10-05T01:06:22.741Z,99187.80
2022-10-05T01:12:18.886Z,99182.40
2022-10-05T01:18:08.922Z,99189.20
2022-10-05T01:24:16.582Z,99190.60
2022-10-05T01:30:18.017Z,99180.40
2022-10-05T01:36:32.928Z,99196.00
2022-10-05T01:42:59.949Z,99210.20
2022-10-05T01:48:47.113Z,99200.80
2022-10-05T01:54:50.139Z,99176.20
2022-10-05T02:00:23.099Z,99171.20
2022-10-05T02:06:43.829Z,99170.00
2022-10-05T02:12:14.833Z,99155.00
2022-10-05T02:17:50.324Z,99157.00
2022-10-05T02:23:32.482Z,99149.40
2022-10-05T02:29:06.055Z,99143.00
2022-10-05T02:34:48.406Z,99153.60
2022-10-05T02:41:02.013Z,99167.60
2022-10-05T02:47:28.595Z,99158.80
2022-10-05T02:53:11.110Z,99173.80
2022-10-05T02:59:06.346Z,99178.60
2022-10-05T03:04:44.150Z,99175.40
2022-10-05T03:10:47.291Z,99181.20
2022-10-05T03:16:38.878Z,99193.40
2022-10-05T03:22:24.212Z,99218.00
2022-10-05T03:28:43.201Z,99217.00
2022-10-05T03:35:01.154Z,99213.40
2022-10-05T03:41:33.638Z,99208.40
2022-10-05T03:47:46.025Z,99194.80
2022-10-05T03:53:20.995Z,99169.20
2022-10-05T03:59:12.490Z,99156.00
2022-10-05T04:05:03.877Z,99134.80
2022-10-05T04:10:35.673Z,99127.00
2022-10-05T04:16:29.763Z,99132.40
2022-10-05T04:22:12.361Z,99155.60
2022-10-05T04:27:53.216Z,99176.40
2022-10-05T04:33:16.351Z,99186.60
2022-10-05T04:39:34.037Z,99173.20
2022-10-05T04:45:28.459Z,99169.00
2022-10-05T04:51:33.540Z,99162.60
2022-10-05T04:57:10.922Z,99155.00
2022-10-05T05:03:43.166Z,99154.00
2022-10-05T05:09:38.309Z,99148.00
2022-10-05T05:15:52.442Z,99159.80
2022-10-05T05:21:38.175Z,99153.20
2022-10-05T05:27:31.154Z,99148.00
2022-10-05T05:33:41.307Z,99158.20
2022-10-05T05:40:00.541Z,99184.00
2022-10-05T05:45:57.151Z,99174.20
2022-10-05T05:51:41.429Z,99165.40
2022-10-05T05:57:23.276Z,99172.20
2022-10-05T06:03:36.333Z,99164.40
2022-10-05T06:10:00.108Z,99181.00
2022-10-05T06:16:01.283Z,99162.00
2022-10-05T06:21:37.695Z,99152.80
2022-10-05T06:27:13.444Z,99140.80
2022-10-05T06:32:50.839Z,99148.20
2022-10-05T06:38:49.616Z,99176.60
2022-10-05T06:44:47.136Z,99186.80
2022-10-05T06:51:12.020Z,99178.00
2022-10-05T06:57:01.814Z,99181.40
2022-10-05T07:02:35.289Z,99173.80
2022-10-05T07:09:18.230Z,99162.20
2022-10-05T07:15:01.191Z,99160.20
2022-10-05T07:21:15.749Z,99160.80
2022-10-05T07:26:59.612Z,99162.00
2022-10-05T07:32:27.915Z,99177.00
2022-10-05T07:38:17.793Z,99167.60
2022-10-05T07:44:02.118Z,99159.00
2022-10-05T07:49:59.754Z,99168.40
2022-10-05T07:55:57.752Z,99169.00
2022-10-05T08:01:37.761Z,99173.60
2022-10-05T08:07:16.401Z,99182.60
2022-10-05T08:13:22.311Z,99191.00
2022-10-05T08:18:56.997Z,99198.00
2022-10-05T08:25:16.811Z,99203.00
2022-10-05T08:30:55.882Z,99197.40
2022-10-05T08:37:15.398Z,99194.80
2022-10-05T08:43:57.497Z,99192.60
2022-10-05T08:50:33.883Z,99200.80
2022-10-05T08:57:43.066Z,99189.00
2022-10-05T09:04:27.656Z,99186.40
2022-10-05T09:10:53.468Z,99197.60
2022-10-05T09:17:35.834Z,99195.40
2022-10-05T09:23:46.806Z,99193.40
2022-10-05T09:30:18.478Z,99193.40
2022-10-05T09:37:37.304Z,99196.00
2022-10-05T09:44:21.983Z,99203.00
2022-10-05T09:51:20.120Z,99199.20
2022-10-05T09:58:00.283Z,99201.80
2022-10-05T10:04:48.822Z,99194.60
2022-10-05T10:10:49.854Z,99199.00
2022-10-05T10:17:24.765Z,99221.60
2022-10-05T10:24:44.486Z,99222.20
2022-10-05T10:31:13.966Z,99218.80
2022-10-05T10:37:34.453Z,99220.80
2022-10-05T10:44:02.684Z,99211.60
2022-10-05T10:50:48.635Z,99201.80
2022-10-05T10:58:04.494Z,99209.00
2022-10-05T11:05:09.020Z,99204.80
2022-10-05T11:11:51.417Z,99205.60
2022-10-05T11:18:27.648Z,99207.80
2022-10-05T11:24:39.421Z,99206.80
2022-10-05T11:30:30.026Z,99202.20
2022-10-05T11:36:53.507Z,99197.00
2022-10-05T11:43:23.120Z,99195.80
2022-10-05T11:49:53.683Z,99196.00
2022-10-05T11:55:50.033Z,99196.40
2022-10-05T12:01:42.192Z,99182.60
2022-10-05T12:07:55.002Z,99158.80
2022-10-05T12:14:17.527Z,99162.40
2022-10-05T12:19:56.557Z,99151.40
2022-10-05T12:25:56.810Z,99150.80
2022-10-05T12:32:22.529Z,99143.60
2022-10-05T12:38:29.355Z,99147.60
2022-10-05T12:45:08.498Z,99134.80
2022-10-05T12:50:36.827Z,99115.60
2022-10-05T12:57:06.161Z,99119.80
2022-10-05T13:03:11.237Z,99117.60
2022-10-05T13:09:03.267Z,99115.80
2022-10-05T13:14:59.215Z,99115.40
2022-10-05T13:20:52.366Z,99115.80
2022-10-05T13:26:39.409Z,99106.80
2022-10-05T13:32:25.895Z,99097.60
2022-10-05T13:38:24.324Z,99101.80
2022-10-05T13:44:33.399Z,99094.00
2022-10-05T13:50:19.441Z,99095.40
2022-10-05T13:55:54.771Z,99088.40
2022-10-05T14:01:53.755Z,99075.60
2022-10-05T14:08:15.758Z,99071.20
